sensor_id;sensor_type;location;lat;lon;timestamp;temperature;humidity
1800;DHT22;919;48.274;12.292;2023-04-09T00:00:38;4.10;99.90
1800;DHT22;919;48.274;12.292;2023-04-09T00:03:05;4.10;99.90
1800;DHT22;919;48.274;12.292;2023-04-09T00:05:31;4.10;99.90
1800;DHT22;919;48.274;12.292;2023-04-09T00:07:59;4.10;99.90
1800;DHT22;919;48.274;12.292;2023-04-09T00:10:26;4.10;99.90
1800;DHT22;919;48.274;12.292;2023-04-09T00:12:53;4.10;99.90
1800;DHT22;919;48.274;12.292;2023-04-09T00:15:19;4.10;99.90
1800;DHT22;919;48.274;12.292;2023-04-09T00:17:46;4.10;99.90
1800;DHT22;919;48.274;12.292;2023-04-09T00:20:13;4.10;99.90
1800;DHT22;919;48.274;12.292;2023-04-09T00:22:40;4.10;99.90
1800;DHT22;919;48.274;12.292;2023-04-09T00:25:08;4.10;99.90
1800;DHT22;919;48.274;12.292;2023-04-09T00:27:35;4.10;99.90
1800;DHT22;919;48.274;12.292;2023-04-09T00:30:02;4.10;99.90
1800;DHT22;919;48.274;12.292;2023-04-09T00:32:28;4.10;99.90
1800;DHT22;919;48.274;12.292;2023-04-09T00:34:55;4.00;99.90
1800;DHT22;919;48.274;12.292;2023-04-09T00:37:22;4.00;99.90
1800;DHT22;919;48.274;12.292;2023-04-09T00:39:49;4.00;99.90
1800;DHT22;919;48.274;12.292;2023-04-09T00:42:17;4.00;99.90
1800;DHT22;919;48.274;12.292;2023-04-09T00:44:43;3.90;99.90
1800;DHT22;919;48.274;12.292;2023-04-09T00:47:10;3.90;99.90
1800;DHT22;919;48.274;12.292;2023-04-09T00:49:37;3.90;99.90
1800;DHT22;919;48.274;12.292;2023-04-09T00:52:04;3.90;99.90
1800;DHT22;919;48.274;12.292;2023-04-09T00:54:31;3.90;99.90
1800;DHT22;919;48.274;12.292;2023-04-09T00:56:58;3.90;99.90
1800;DHT22;919;48.274;12.292;2023-04-09T00:59:26;3.90;99.90
1800;DHT22;919;48.274;12.292;2023-04-09T01:01:54;3.90;99.90
1800;DHT22;919;48.274;12.292;2023-04-09T01:04:20;3.80;99.90
1800;DHT22;919;48.274;12.292;2023-04-09T01:06:50;3.80;99.90
1800;DHT22;919;48.274;12.292;2023-04-09T01:09:23;3.70;99.90
1800;DHT22;919;48.274;12.292;2023-04-09T01:12:01;3.70;99.90
1800;DHT22;919;48.274;12.292;2023-04-09T01:14:37;3.80;99.90
1800;DHT22;919;48.274;12.292;2023-04-09T01:17:08;3.70;99.90
1800;DHT22;919;48.274;12.292;2023-04-09T01:19:42;3.80;99.90
1800;DHT22;919;48.274;12.292;2023-04-09T01:22:23;3.80;99.90
1800;DHT22;919;48.274;12.292;2023-04-09T01:25:02;3.80;99.90
1800;DHT22;919;48.274;12.292;2023-04-09T01:27:36;3.80;99.90
1800;DHT22;919;48.274;12.292;2023-04-09T01:30:08;3.80;99.90
1800;DHT22;919;48.274;12.292;2023-04-09T01:32:36;3.80;99.90
1800;DHT22;919;48.274;12.292;2023-04-09T01:35:05;3.80;99.90
1800;DHT22;919;48.274;12.292;2023-04-09T01:37:32;3.80;99.90
1800;DHT22;919;48.274;12.292;2023-04-09T01:40:00;3.80;99.90
1800;DHT22;919;48.274;12.292;2023-04-09T01:42:27;3.70;99.90
1800;DHT22;919;48.274;12.292;2023-04-09T01:44:54;3.60;99.90
1800;DHT22;919;48.274;12.292;2023-04-09T01:47:23;3.70;99.90
1800;DHT22;919;48.274;12.292;2023-04-09T01:49:50;3.70;99.90
1800;DHT22;919;48.274;12.292;2023-04-09T01:52:17;3.70;99.90
1800;DHT22;919;48.274;12.292;2023-04-09T01:54:45;3.70;99.90
1800;DHT22;919;48.274;12.292;2023-04-09T01:57:11;3.70;99.90
1800;DHT22;919;48.274;12.292;2023-04-09T01:59:38;3.70;99.90
1800;DHT22;919;48.274;12.292;2023-04-09T02:02:08;3.70;99.90
1800;DHT22;919;48.274;12.292;2023-04-09T02:04:40;3.70;99.90
1800;DHT22;919;48.274;12.292;2023-04-09T02:07:14;3.60;99.90
1800;DHT22;919;48.274;12.292;2023-04-09T02:09:45;3.60;99.90
1800;DHT22;919;48.274;12.292;2023-04-09T02:12:15;3.60;99.90
1800;DHT22;919;48.274;12.292;2023-04-09T02:14:45;3.50;99.90
1800;DHT22;919;48.274;12.292;2023-04-09T02:17:12;3.50;99.90
1800;DHT22;919;48.274;12.292;2023-04-09T02:19:42;3.50;99.90
1800;DHT22;919;48.274;12.292;2023-04-09T02:22:10;3.50;99.90
1800;DHT22;919;48.274;12.292;2023-04-09T02:24:37;3.50;99.90
1800;DHT22;919;48.274;12.292;2023-04-09T02:27:05;3.40;99.90
1800;DHT22;919;48.274;12.292;2023-04-09T02:29:32;3.40;99.90
1800;DHT22;919;48.274;12.292;2023-04-09T02:31:59;3.40;99.90
1800;DHT22;919;48.274;12.292;2023-04-09T02:34:26;3.40;99.90
1800;DHT22;919;48.274;12.292;2023-04-09T02:36:54;3.40;99.90
1800;DHT22;919;48.274;12.292;2023-04-09T02:39:20;3.30;99.90
1800;DHT22;919;48.274;12.292;2023-04-09T02:41:47;3.30;99.90
1800;DHT22;919;48.274;12.292;2023-04-09T02:44:14;3.30;99.90
1800;DHT22;919;48.274;12.292;2023-04-09T02:46:41;3.30;99.90
1800;DHT22;919;48.274;12.292;2023-04-09T02:49:08;3.30;99.90
1800;DHT22;919;48.274;12.292;2023-04-09T02:51:34;3.30;99.90
1800;DHT22;919;48.274;12.292;2023-04-09T02:54:03;3.30;99.90
1800;DHT22;919;48.274;12.292;2023-04-09T02:56:30;3.30;99.90
1800;DHT22;919;48.274;12.292;2023-04-09T02:58:56;3.30;99.90
1800;DHT22;919;48.274;12.292;2023-04-09T03:01:23;3.30;99.90
1800;DHT22;919;48.274;12.292;2023-04-09T03:03:50;3.20;99.90
1800;DHT22;919;48.274;12.292;2023-04-09T03:06:17;3.30;99.90
1800;DHT22;919;48.274;12.292;2023-04-09T03:08:43;3.30;99.90
1800;DHT22;919;48.274;12.292;2023-04-09T03:11:12;3.30;99.90
1800;DHT22;919;48.274;12.292;2023-04-09T03:13:39;3.40;99.90
1800;DHT22;919;48.274;12.292;2023-04-09T03:16:06;3.40;99.90
1800;DHT22;919;48.274;12.292;2023-04-09T03:18:34;3.40;99.90
1800;DHT22;919;48.274;12.292;2023-04-09T03:21:04;3.40;99.90
1800;DHT22;919;48.274;12.292;2023-04-09T03:23:31;3.40;99.90
1800;DHT22;919;48.274;12.292;2023-04-09T03:26:00;3.40;99.90
1800;DHT22;919;48.274;12.292;2023-04-09T03:28:29;3.40;99.90
1800;DHT22;919;48.274;12.292;2023-04-09T03:30:55;3.40;99.90
1800;DHT22;919;48.274;12.292;2023-04-09T03:33:22;3.50;99.90
1800;DHT22;919;48.274;12.292;2023-04-09T03:35:49;3.50;99.90
1800;DHT22;919;48.274;12.292;2023-04-09T03:38:16;3.50;99.90
1800;DHT22;919;48.274;12.292;2023-04-09T03:40:43;3.50;99.90
1800;DHT22;919;48.274;12.292;2023-04-09T03:43:10;3.50;99.90
1800;DHT22;919;48.274;12.292;2023-04-09T03:45:38;3.50;99.90
1800;DHT22;919;48.274;12.292;2023-04-09T03:48:05;3.40;99.90
1800;DHT22;919;48.274;12.292;2023-04-09T03:50:37;3.40;99.90
1800;DHT22;919;48.274;12.292;2023-04-09T03:53:04;3.40;99.90
1800;DHT22;919;48.274;12.292;2023-04-09T03:55:30;3.40;99.90
1800;DHT22;919;48.274;12.292;2023-04-09T03:57:57;3.30;99.90
1800;DHT22;919;48.274;12.292;2023-04-09T04:00:24;3.30;99.90
1800;DHT22;919;48.274;12.292;2023-04-09T04:02:52;3.20;99.90
1800;DHT22;919;48.274;12.292;2023-04-09T04:05:21;3.20;99.90
1800;DHT22;919;48.274;12.292;2023-04-09T04:07:48;3.30;99.90
1800;DHT22;919;48.274;12.292;2023-04-09T04:10:14;3.30;99.90
1800;DHT22;919;48.274;12.292;2023-04-09T04:12:41;3.30;99.90
1800;DHT22;919;48.274;12.292;2023-04-09T04:15:08;3.40;99.90
1800;DHT22;919;48.274;12.292;2023-04-09T04:17:35;3.40;99.90
1800;DHT22;919;48.274;12.292;2023-04-09T04:20:04;3.40;99.90
1800;DHT22;919;48.274;12.292;2023-04-09T04:22:32;3.40;99.90
1800;DHT22;919;48.274;12.292;2023-04-09T04:24:59;3.40;99.90
1800;DHT22;919;48.274;12.292;2023-04-09T04:27:25;3.40;99.90
1800;DHT22;919;48.274;12.292;2023-04-09T04:29:52;3.40;99.90
1800;DHT22;919;48.274;12.292;2023-04-09T04:32:19;3.40;99.90
1800;DHT22;919;48.274;12.292;2023-04-09T04:34:47;3.50;99.90
1800;DHT22;919;48.274;12.292;2023-04-09T04:37:15;3.40;99.90
1800;DHT22;919;48.274;12.292;2023-04-09T04:39:42;3.40;99.90
1800;DHT22;919;48.274;12.292;2023-04-09T04:42:09;3.40;99.90
1800;DHT22;919;48.274;12.292;2023-04-09T04:44:35;3.40;99.90
1800;DHT22;919;48.274;12.292;2023-04-09T04:47:02;3.40;99.90
1800;DHT22;919;48.274;12.292;2023-04-09T04:49:29;3.40;99.90
1800;DHT22;919;48.274;12.292;2023-04-09T04:51:56;3.40;99.90
1800;DHT22;919;48.274;12.292;2023-04-09T04:54:24;3.40;99.90
1800;DHT22;919;48.274;12.292;2023-04-09T04:56:50;3.40;99.90
1800;DHT22;919;48.274;12.292;2023-04-09T04:59:17;3.40;99.90
1800;DHT22;919;48.274;12.292;2023-04-09T05:01:44;3.40;99.90
1800;DHT22;919;48.274;12.292;2023-04-09T05:04:11;3.40;99.90
1800;DHT22;919;48.274;12.292;2023-04-09T05:06:37;3.40;99.90
1800;DHT22;919;48.274;12.292;2023-04-09T05:09:04;3.40;99.90
1800;DHT22;919;48.274;12.292;2023-04-09T05:11:32;3.50;99.90
1800;DHT22;919;48.274;12.292;2023-04-09T05:13:59;3.50;99.90
1800;DHT22;919;48.274;12.292;2023-04-09T05:16:25;3.60;99.90
1800;DHT22;919;48.274;12.292;2023-04-09T05:18:52;3.60;99.90
1800;DHT22;919;48.274;12.292;2023-04-09T05:21:19;3.60;99.90
1800;DHT22;919;48.274;12.292;2023-04-09T05:23:45;3.60;99.90
1800;DHT22;919;48.274;12.292;2023-04-09T05:26:12;3.70;99.90
1800;DHT22;919;48.274;12.292;2023-04-09T05:28:40;3.70;99.90
1800;DHT22;919;48.274;12.292;2023-04-09T05:31:07;3.70;99.90
1800;DHT22;919;48.274;12.292;2023-04-09T05:33:37;3.80;99.90
1800;DHT22;919;48.274;12.292;2023-04-09T05:36:04;3.80;99.90
1800;DHT22;919;48.274;12.292;2023-04-09T05:38:31;3.90;99.90
1800;DHT22;919;48.274;12.292;2023-04-09T05:40:58;3.90;99.90
1800;DHT22;919;48.274;12.292;2023-04-09T05:43:25;4.00;99.90
1800;DHT22;919;48.274;12.292;2023-04-09T05:45:53;4.00;99.90
1800;DHT22;919;48.274;12.292;2023-04-09T05:48:20;4.00;99.90
1800;DHT22;919;48.274;12.292;2023-04-09T05:50:48;4.10;99.90
1800;DHT22;919;48.274;12.292;2023-04-09T05:53:16;4.20;99.90
1800;DHT22;919;48.274;12.292;2023-04-09T05:55:43;4.20;99.90
1800;DHT22;919;48.274;12.292;2023-04-09T05:58:10;4.30;99.90
1800;DHT22;919;48.274;12.292;2023-04-09T06:00:37;4.40;99.90
1800;DHT22;919;48.274;12.292;2023-04-09T06:03:05;4.50;99.90
1800;DHT22;919;48.274;12.292;2023-04-09T06:05:32;4.60;99.90
1800;DHT22;919;48.274;12.292;2023-04-09T06:07:59;4.60;99.90
1800;DHT22;919;48.274;12.292;2023-04-09T06:10:26;4.70;99.90
1800;DHT22;919;48.274;12.292;2023-04-09T06:12:53;4.80;99.90
1800;DHT22;919;48.274;12.292;2023-04-09T06:15:19;4.90;99.90
1800;DHT22;919;48.274;12.292;2023-04-09T06:17:46;5.00;99.90
1800;DHT22;919;48.274;12.292;2023-04-09T06:20:14;5.00;99.90
1800;DHT22;919;48.274;12.292;2023-04-09T06:22:41;5.10;99.90
1800;DHT22;919;48.274;12.292;2023-04-09T06:25:08;5.20;99.90
1800;DHT22;919;48.274;12.292;2023-04-09T06:27:35;5.10;99.90
1800;DHT22;919;48.274;12.292;2023-04-09T06:30:01;5.20;99.90
1800;DHT22;919;48.274;12.292;2023-04-09T06:32:28;5.30;99.90
1800;DHT22;919;48.274;12.292;2023-04-09T06:34:55;5.30;99.90
1800;DHT22;919;48.274;12.292;2023-04-09T06:37:23;5.30;99.90
1800;DHT22;919;48.274;12.292;2023-04-09T06:39:50;5.40;99.90
1800;DHT22;919;48.274;12.292;2023-04-09T06:42:16;5.50;99.90
1800;DHT22;919;48.274;12.292;2023-04-09T06:44:43;5.50;99.90
1800;DHT22;919;48.274;12.292;2023-04-09T06:47:10;5.50;99.90
1800;DHT22;919;48.274;12.292;2023-04-09T06:49:37;5.60;99.90
1800;DHT22;919;48.274;12.292;2023-04-09T06:52:04;5.60;99.90
1800;DHT22;919;48.274;12.292;2023-04-09T06:54:33;5.60;99.90
1800;DHT22;919;48.274;12.292;2023-04-09T06:57:00;5.60;99.90
1800;DHT22;919;48.274;12.292;2023-04-09T06:59:26;5.70;99.90
1800;DHT22;919;48.274;12.292;2023-04-09T07:01:53;5.90;99.90
1800;DHT22;919;48.274;12.292;2023-04-09T07:04:20;5.90;99.90
1800;DHT22;919;48.274;12.292;2023-04-09T07:06:47;6.10;99.90
1800;DHT22;919;48.274;12.292;2023-04-09T07:09:13;6.20;99.90
1800;DHT22;919;48.274;12.292;2023-04-09T07:11:42;6.30;99.90
1800;DHT22;919;48.274;12.292;2023-04-09T07:14:08;6.40;99.90
1800;DHT22;919;48.274;12.292;2023-04-09T07:16:35;6.50;99.90
1800;DHT22;919;48.274;12.292;2023-04-09T07:19:02;6.50;99.90
1800;DHT22;919;48.274;12.292;2023-04-09T07:21:30;6.50;99.90
1800;DHT22;919;48.274;12.292;2023-04-09T07:23:57;6.60;99.90
1800;DHT22;919;48.274;12.292;2023-04-09T07:26:24;6.60;99.90
1800;DHT22;919;48.274;12.292;2023-04-09T07:28:52;6.70;99.90
1800;DHT22;919;48.274;12.292;2023-04-09T07:31:18;6.80;99.90
1800;DHT22;919;48.274;12.292;2023-04-09T07:33:45;6.80;99.90
1800;DHT22;919;48.274;12.292;2023-04-09T07:36:12;6.90;99.90
1800;DHT22;919;48.274;12.292;2023-04-09T07:38:38;7.00;99.90
1800;DHT22;919;48.274;12.292;2023-04-09T07:41:06;7.10;99.90
1800;DHT22;919;48.274;12.292;2023-04-09T07:43:37;7.20;99.90
1800;DHT22;919;48.274;12.292;2023-04-09T07:46:06;7.20;99.90
1800;DHT22;919;48.274;12.292;2023-04-09T07:48:32;7.30;99.90
1800;DHT22;919;48.274;12.292;2023-04-09T07:50:59;7.40;99.90
1800;DHT22;919;48.274;12.292;2023-04-09T07:53:26;7.40;99.90
1800;DHT22;919;48.274;12.292;2023-04-09T07:55:53;7.40;99.90
1800;DHT22;919;48.274;12.292;2023-04-09T07:58:20;7.40;99.90
1800;DHT22;919;48.274;12.292;2023-04-09T08:00:55;7.50;99.90
1800;DHT22;919;48.274;12.292;2023-04-09T08:03:24;7.50;99.90
1800;DHT22;919;48.274;12.292;2023-04-09T08:05:50;7.50;99.90
1800;DHT22;919;48.274;12.292;2023-04-09T08:08:17;7.50;99.90
1800;DHT22;919;48.274;12.292;2023-04-09T08:10:45;7.60;99.90
1800;DHT22;919;48.274;12.292;2023-04-09T08:13:16;7.60;99.90
1800;DHT22;919;48.274;12.292;2023-04-09T08:15:44;7.70;99.90
1800;DHT22;919;48.274;12.292;2023-04-09T08:18:12;7.70;99.90
1800;DHT22;919;48.274;12.292;2023-04-09T08:20:40;7.80;99.90
1800;DHT22;919;48.274;12.292;2023-04-09T08:23:09;7.80;99.90
1800;DHT22;919;48.274;12.292;2023-04-09T08:25:51;7.90;99.90
1800;DHT22;919;48.274;12.292;2023-04-09T08:28:18;7.90;99.90
1800;DHT22;919;48.274;12.292;2023-04-09T08:30:44;7.90;99.90
1800;DHT22;919;48.274;12.292;2023-04-09T08:33:13;7.80;99.90
1800;DHT22;919;48.274;12.292;2023-04-09T08:35:44;7.80;99.90
1800;DHT22;919;48.274;12.292;2023-04-09T08:38:11;7.80;99.90
1800;DHT22;919;48.274;12.292;2023-04-09T08:40:38;7.90;99.90
1800;DHT22;919;48.274;12.292;2023-04-09T08:43:14;7.90;99.90
1800;DHT22;919;48.274;12.292;2023-04-09T08:45:42;8.00;99.90
1800;DHT22;919;48.274;12.292;2023-04-09T08:48:09;8.00;99.90
1800;DHT22;919;48.274;12.292;2023-04-09T08:50:38;8.00;99.90
1800;DHT22;919;48.274;12.292;2023-04-09T08:53:07;8.00;99.90
1800;DHT22;919;48.274;12.292;2023-04-09T08:55:35;8.10;99.90
1800;DHT22;919;48.274;12.292;2023-04-09T08:58:03;8.20;99.90
1800;DHT22;919;48.274;12.292;2023-04-09T09:00:31;8.30;99.90
1800;DHT22;919;48.274;12.292;2023-04-09T09:03:03;8.30;99.90
1800;DHT22;919;48.274;12.292;2023-04-09T09:05:38;8.40;99.90
1800;DHT22;919;48.274;12.292;2023-04-09T09:08:08;8.40;99.90
1800;DHT22;919;48.274;12.292;2023-04-09T09:10:39;8.50;99.90
1800;DHT22;919;48.274;12.292;2023-04-09T09:13:16;8.60;99.90
1800;DHT22;919;48.274;12.292;2023-04-09T09:15:44;8.60;99.90
1800;DHT22;919;48.274;12.292;2023-04-09T09:18:12;8.60;99.90
1800;DHT22;919;48.274;12.292;2023-04-09T09:20:39;8.70;99.90
1800;DHT22;919;48.274;12.292;2023-04-09T09:23:08;8.80;99.90
1800;DHT22;919;48.274;12.292;2023-04-09T09:25:37;8.80;99.90
1800;DHT22;919;48.274;12.292;2023-04-09T09:28:08;8.60;99.90
1800;DHT22;919;48.274;12.292;2023-04-09T09:30:35;8.40;99.90
1800;DHT22;919;48.274;12.292;2023-04-09T09:33:05;8.20;99.90
1800;DHT22;919;48.274;12.292;2023-04-09T09:35:46;8.00;99.90
1800;DHT22;919;48.274;12.292;2023-04-09T09:38:14;7.90;99.90
1800;DHT22;919;48.274;12.292;2023-04-09T09:40:42;7.90;99.90
1800;DHT22;919;48.274;12.292;2023-04-09T09:43:09;8.00;99.90
1800;DHT22;919;48.274;12.292;2023-04-09T09:45:36;8.00;99.90
1800;DHT22;919;48.274;12.292;2023-04-09T09:48:04;7.90;99.90
1800;DHT22;919;48.274;12.292;2023-04-09T09:50:33;7.90;99.90
1800;DHT22;919;48.274;12.292;2023-04-09T09:53:03;7.90;99.90
1800;DHT22;919;48.274;12.292;2023-04-09T09:55:35;7.90;99.90
1800;DHT22;919;48.274;12.292;2023-04-09T09:58:08;7.70;99.90
1800;DHT22;919;48.274;12.292;2023-04-09T10:00:39;7.60;99.90
1800;DHT22;919;48.274;12.292;2023-04-09T10:03:11;7.50;99.90
1800;DHT22;919;48.274;12.292;2023-04-09T10:05:40;7.50;99.90
1800;DHT22;919;48.274;12.292;2023-04-09T10:08:07;7.40;99.90
1800;DHT22;919;48.274;12.292;2023-04-09T10:10:38;7.40;99.90
1800;DHT22;919;48.274;12.292;2023-04-09T10:13:07;7.50;99.90
1800;DHT22;919;48.274;12.292;2023-04-09T10:15:35;7.40;99.90
1800;DHT22;919;48.274;12.292;2023-04-09T10:18:01;7.30;99.90
1800;DHT22;919;48.274;12.292;2023-04-09T10:20:35;7.30;99.90
1800;DHT22;919;48.274;12.292;2023-04-09T10:23:10;7.30;99.90
1800;DHT22;919;48.274;12.292;2023-04-09T10:25:42;7.30;99.90
1800;DHT22;919;48.274;12.292;2023-04-09T10:28:20;7.40;99.90
1800;DHT22;919;48.274;12.292;2023-04-09T10:30:58;7.50;99.90
1800;DHT22;919;48.274;12.292;2023-04-09T10:33:25;7.70;99.90
1800;DHT22;919;48.274;12.292;2023-04-09T10:35:54;7.80;99.90
1800;DHT22;919;48.274;12.292;2023-04-09T10:38:33;7.90;99.90
1800;DHT22;919;48.274;12.292;2023-04-09T10:41:08;8.10;99.90
1800;DHT22;919;48.274;12.292;2023-04-09T10:43:39;8.40;99.90
1800;DHT22;919;48.274;12.292;2023-04-09T10:46:23;8.60;99.90
1800;DHT22;919;48.274;12.292;2023-04-09T10:49:09;8.80;99.90
1800;DHT22;919;48.274;12.292;2023-04-09T10:51:36;9.00;99.90
1800;DHT22;919;48.274;12.292;2023-04-09T10:54:04;9.00;99.90
1800;DHT22;919;48.274;12.292;2023-04-09T10:56:32;9.10;99.90
1800;DHT22;919;48.274;12.292;2023-04-09T10:58:59;9.00;99.90
1800;DHT22;919;48.274;12.292;2023-04-09T11:01:26;9.20;99.90
1800;DHT22;919;48.274;12.292;2023-04-09T11:04:07;9.20;99.90
1800;DHT22;919;48.274;12.292;2023-04-09T11:06:35;9.60;99.90
1800;DHT22;919;48.274;12.292;2023-04-09T11:09:02;10.00;99.90
1800;DHT22;919;48.274;12.292;2023-04-09T11:11:29;10.40;99.90
1800;DHT22;919;48.274;12.292;2023-04-09T11:13:59;11.00;99.90
1800;DHT22;919;48.274;12.292;2023-04-09T11:16:27;11.30;99.90
1800;DHT22;919;48.274;12.292;2023-04-09T11:18:54;11.70;99.90
1800;DHT22;919;48.274;12.292;2023-04-09T11:21:25;11.70;99.90
1800;DHT22;919;48.274;12.292;2023-04-09T11:23:53;11.60;99.90
1800;DHT22;919;48.274;12.292;2023-04-09T11:26:22;11.60;99.90
1800;DHT22;919;48.274;12.292;2023-04-09T11:28:49;11.40;99.90
1800;DHT22;919;48.274;12.292;2023-04-09T11:31:27;11.40;99.90
1800;DHT22;919;48.274;12.292;2023-04-09T11:33:54;11.40;99.90
1800;DHT22;919;48.274;12.292;2023-04-09T11:36:21;11.60;99.90
1800;DHT22;919;48.274;12.292;2023-04-09T11:38:48;11.20;99.90
1800;DHT22;919;48.274;12.292;2023-04-09T11:41:15;10.80;99.90
1800;DHT22;919;48.274;12.292;2023-04-09T11:43:42;10.80;99.90
1800;DHT22;919;48.274;12.292;2023-04-09T11:46:09;10.80;99.90
1800;DHT22;919;48.274;12.292;2023-04-09T11:48:37;11.00;99.90
1800;DHT22;919;48.274;12.292;2023-04-09T11:51:04;11.00;99.90
1800;DHT22;919;48.274;12.292;2023-04-09T11:53:31;10.80;99.90
1800;DHT22;919;48.274;12.292;2023-04-09T11:55:58;10.50;99.90
1800;DHT22;919;48.274;12.292;2023-04-09T11:58:26;10.30;99.90
1800;DHT22;919;48.274;12.292;2023-04-09T12:00:53;10.20;99.90
1800;DHT22;919;48.274;12.292;2023-04-09T12:03:27;10.10;99.90
1800;DHT22;919;48.274;12.292;2023-04-09T12:05:59;10.10;99.90
1800;DHT22;919;48.274;12.292;2023-04-09T12:08:26;10.10;99.90
1800;DHT22;919;48.274;12.292;2023-04-09T12:10:53;9.90;99.90
1800;DHT22;919;48.274;12.292;2023-04-09T12:13:20;9.80;99.90
1800;DHT22;919;48.274;12.292;2023-04-09T12:15:48;9.70;99.90
1800;DHT22;919;48.274;12.292;2023-04-09T12:18:15;9.70;99.90
1800;DHT22;919;48.274;12.292;2023-04-09T12:20:43;9.70;99.90
1800;DHT22;919;48.274;12.292;2023-04-09T12:23:13;9.60;99.90
1800;DHT22;919;48.274;12.292;2023-04-09T12:25:41;9.50;99.90
1800;DHT22;919;48.274;12.292;2023-04-09T12:28:09;9.50;99.90
1800;DHT22;919;48.274;12.292;2023-04-09T12:30:37;9.50;99.90
1800;DHT22;919;48.274;12.292;2023-04-09T12:33:03;9.50;99.90
1800;DHT22;919;48.274;12.292;2023-04-09T12:35:30;9.60;99.90
1800;DHT22;919;48.274;12.292;2023-04-09T12:37:57;9.80;99.90
1800;DHT22;919;48.274;12.292;2023-04-09T12:40:26;10.00;99.90
1800;DHT22;919;48.274;12.292;2023-04-09T12:42:53;10.10;99.90
1800;DHT22;919;48.274;12.292;2023-04-09T12:45:20;10.30;99.90
1800;DHT22;919;48.274;12.292;2023-04-09T12:47:47;10.70;99.90
1800;DHT22;919;48.274;12.292;2023-04-09T12:50:14;11.10;99.90
1800;DHT22;919;48.274;12.292;2023-04-09T12:52:42;11.40;99.90
1800;DHT22;919;48.274;12.292;2023-04-09T12:55:09;11.60;99.90
1800;DHT22;919;48.274;12.292;2023-04-09T12:57:38;11.40;99.90
1800;DHT22;919;48.274;12.292;2023-04-09T13:00:06;11.30;99.90
1800;DHT22;919;48.274;12.292;2023-04-09T13:02:33;11.10;99.90
1800;DHT22;919;48.274;12.292;2023-04-09T13:05:00;11.10;99.90
1800;DHT22;919;48.274;12.292;2023-04-09T13:07:27;11.10;99.90
1800;DHT22;919;48.274;12.292;2023-04-09T13:09:55;11.10;99.90
1800;DHT22;919;48.274;12.292;2023-04-09T13:12:22;11.10;99.90
1800;DHT22;919;48.274;12.292;2023-04-09T13:14:52;11.20;99.90
1800;DHT22;919;48.274;12.292;2023-04-09T13:17:20;11.30;99.90
1800;DHT22;919;48.274;12.292;2023-04-09T13:19:46;11.50;99.90
1800;DHT22;919;48.274;12.292;2023-04-09T13:22:13;11.70;99.90
1800;DHT22;919;48.274;12.292;2023-04-09T13:24:40;11.80;99.90
1800;DHT22;919;48.274;12.292;2023-04-09T13:27:07;11.70;99.90
1800;DHT22;919;48.274;12.292;2023-04-09T13:29:34;11.60;99.90
1800;DHT22;919;48.274;12.292;2023-04-09T13:32:03;11.70;99.90
1800;DHT22;919;48.274;12.292;2023-04-09T13:34:32;11.80;99.90
1800;DHT22;919;48.274;12.292;2023-04-09T13:36:59;12.00;99.90
1800;DHT22;919;48.274;12.292;2023-04-09T13:39:26;12.10;99.90
1800;DHT22;919;48.274;12.292;2023-04-09T13:41:52;12.30;99.90
1800;DHT22;919;48.274;12.292;2023-04-09T13:44:20;12.40;99.90
1800;DHT22;919;48.274;12.292;2023-04-09T13:46:47;12.50;99.90
1800;DHT22;919;48.274;12.292;2023-04-09T13:49:15;12.60;99.90
1800;DHT22;919;48.274;12.292;2023-04-09T13:51:42;12.20;99.90
1800;DHT22;919;48.274;12.292;2023-04-09T13:54:16;11.70;99.90
1800;DHT22;919;48.274;12.292;2023-04-09T13:56:49;11.50;99.90
1800;DHT22;919;48.274;12.292;2023-04-09T13:59:16;11.50;99.90
1800;DHT22;919;48.274;12.292;2023-04-09T14:01:42;11.50;99.90
1800;DHT22;919;48.274;12.292;2023-04-09T14:04:09;11.60;99.90
1800;DHT22;919;48.274;12.292;2023-04-09T14:06:37;11.40;99.90
1800;DHT22;919;48.274;12.292;2023-04-09T14:09:04;11.20;99.90
1800;DHT22;919;48.274;12.292;2023-04-09T14:11:31;11.40;99.90
1800;DHT22;919;48.274;12.292;2023-04-09T14:13:58;11.90;99.90
1800;DHT22;919;48.274;12.292;2023-04-09T14:16:25;12.10;99.90
1800;DHT22;919;48.274;12.292;2023-04-09T14:18:52;12.50;99.90
1800;DHT22;919;48.274;12.292;2023-04-09T14:21:19;12.70;99.90
1800;DHT22;919;48.274;12.292;2023-04-09T14:23:47;12.90;99.90
1800;DHT22;919;48.274;12.292;2023-04-09T14:26:14;13.10;99.90
1800;DHT22;919;48.274;12.292;2023-04-09T14:28:41;13.40;99.90
1800;DHT22;919;48.274;12.292;2023-04-09T14:31:09;13.50;99.90
1800;DHT22;919;48.274;12.292;2023-04-09T14:33:36;13.60;99.90
1800;DHT22;919;48.274;12.292;2023-04-09T14:36:03;13.70;99.90
1800;DHT22;919;48.274;12.292;2023-04-09T14:38:30;13.40;99.90
1800;DHT22;919;48.274;12.292;2023-04-09T14:40:58;13.10;99.90
1800;DHT22;919;48.274;12.292;2023-04-09T14:43:25;13.10;99.90
1800;DHT22;919;48.274;12.292;2023-04-09T14:45:52;12.80;99.90
1800;DHT22;919;48.274;12.292;2023-04-09T14:48:19;12.60;99.90
1800;DHT22;919;48.274;12.292;2023-04-09T14:50:47;12.20;99.90
1800;DHT22;919;48.274;12.292;2023-04-09T14:53:15;12.10;99.90
1800;DHT22;919;48.274;12.292;2023-04-09T14:55:42;11.70;99.90
1800;DHT22;919;48.274;12.292;2023-04-09T14:58:10;11.50;99.90
1800;DHT22;919;48.274;12.292;2023-04-09T15:00:37;11.10;99.90
1800;DHT22;919;48.274;12.292;2023-04-09T15:03:04;11.00;99.90
1800;DHT22;919;48.274;12.292;2023-04-09T15:05:31;11.00;99.90
1800;DHT22;919;48.274;12.292;2023-04-09T15:07:58;11.10;99.90
1800;DHT22;919;48.274;12.292;2023-04-09T15:10:24;11.30;99.90
1800;DHT22;919;48.274;12.292;2023-04-09T15:12:51;11.40;99.90
1800;DHT22;919;48.274;12.292;2023-04-09T15:15:20;11.40;99.90
1800;DHT22;919;48.274;12.292;2023-04-09T15:17:46;11.40;99.90
1800;DHT22;919;48.274;12.292;2023-04-09T15:20:13;11.40;99.90
1800;DHT22;919;48.274;12.292;2023-04-09T15:22:40;11.40;99.90
1800;DHT22;919;48.274;12.292;2023-04-09T15:25:07;11.30;99.90
1800;DHT22;919;48.274;12.292;2023-04-09T15:27:34;11.20;99.90
1800;DHT22;919;48.274;12.292;2023-04-09T15:30:01;11.20;99.90
1800;DHT22;919;48.274;12.292;2023-04-09T15:32:29;11.40;99.90
1800;DHT22;919;48.274;12.292;2023-04-09T15:34:56;11.60;99.90
1800;DHT22;919;48.274;12.292;2023-04-09T15:37:24;11.60;99.90
1800;DHT22;919;48.274;12.292;2023-04-09T15:39:51;11.70;99.90
1800;DHT22;919;48.274;12.292;2023-04-09T15:42:18;11.60;99.90
1800;DHT22;919;48.274;12.292;2023-04-09T15:44:47;11.40;99.90
1800;DHT22;919;48.274;12.292;2023-04-09T15:47:14;11.40;99.90
1800;DHT22;919;48.274;12.292;2023-04-09T15:49:42;11.50;99.90
1800;DHT22;919;48.274;12.292;2023-04-09T15:52:09;11.70;99.90
1800;DHT22;919;48.274;12.292;2023-04-09T15:54:36;12.10;99.90
1800;DHT22;919;48.274;12.292;2023-04-09T15:57:03;12.40;99.90
1800;DHT22;919;48.274;12.292;2023-04-09T15:59:29;12.70;99.90
1800;DHT22;919;48.274;12.292;2023-04-09T16:01:56;12.80;99.90
1800;DHT22;919;48.274;12.292;2023-04-09T16:04:23;12.50;99.90
1800;DHT22;919;48.274;12.292;2023-04-09T16:06:52;12.30;99.90
1800;DHT22;919;48.274;12.292;2023-04-09T16:09:20;12.00;99.90
1800;DHT22;919;48.274;12.292;2023-04-09T16:11:47;12.00;99.90
1800;DHT22;919;48.274;12.292;2023-04-09T16:14:15;11.90;99.90
1800;DHT22;919;48.274;12.292;2023-04-09T16:16:42;11.80;99.90